Time;durP1;ratioP1;P1;durP2;ratioP2;P2;SDS_P1;SDS_P2;PMS_P1;PMS_P2;Temp;Humidity;BMP_temperature;BMP_pressure;BME280_temperature;BME280_humidity;BME280_pressure;Samples;Min_cycle;Max_cycle;Signal;HPM_P1;HPM_P2
2022/01/16 00:07:58;;;;;;;32.70;12.45;;;7.00;99.90;;;;;;10531000;28;20032;-66
2022/01/16 00:13:00;;;;;;;32.55;12.43;;;7.00;99.90;;;;;;10532396;28;20032;-63
2022/01/16 00:23:08;;;;;;;33.40;12.68;;;7.00;99.90;;;;;;10518161;28;20489;-62
2022/01/16 00:28:09;;;;;;;32.80;11.98;;;7.00;99.90;;;;;;10531241;28;20016;-63
2022/01/16 00:33:10;;;;;;;35.30;12.73;;;7.00;99.90;;;;;;10529596;28;20411;-62
2022/01/16 00:38:10;;;;;;;36.60;13.18;;;7.00;99.90;;;;;;10530551;28;20032;-63
2022/01/16 00:43:11;;;;;;;33.60;13.05;;;7.00;99.90;;;;;;10539733;28;20048;-64
2022/01/16 00:48:12;;;;;;;35.38;12.82;;;7.00;99.90;;;;;;10531828;28;20035;-63
2022/01/16 00:53:13;;;;;;;34.92;13.25;;;6.90;99.90;;;;;;10523702;28;20025;-64
2022/01/16 00:58:14;;;;;;;32.25;12.60;;;6.90;99.90;;;;;;10526743;28;20032;-65
2022/01/16 01:03:15;;;;;;;34.53;12.95;;;6.90;99.90;;;;;;10528051;28;20036;-67
2022/01/16 01:08:17;;;;;;;35.45;13.48;;;7.10;99.90;;;;;;10527397;28;20028;-67
2022/01/16 01:13:32;;;;;;;45.08;15.35;;;7.00;99.90;;;;;;10528970;28;20062;-66
2022/01/16 01:18:34;;;;;;;36.63;14.57;;;6.90;99.90;;;;;;10530433;28;20028;-66
2022/01/16 01:23:35;;;;;;;38.53;14.65;;;6.90;99.90;;;;;;10514919;28;20028;-66
2022/01/16 01:28:36;;;;;;;39.90;14.73;;;6.90;99.90;;;;;;10529207;28;20028;-67
2022/01/16 01:33:36;;;;;;;38.63;14.60;;;6.90;99.90;;;;;;10527960;28;20067;-66
2022/01/16 01:38:37;;;;;;;41.03;14.80;;;6.90;99.90;;;;;;10528459;28;20038;-66
2022/01/16 01:54:06;;;;;;;38.90;13.45;;;6.90;99.90;;;;;;10519716;28;20063;-65
2022/01/16 01:59:08;;;;;;;43.70;15.05;;;6.90;99.90;;;;;;10526070;28;20407;-68
2022/01/16 02:04:08;;;;;;;46.97;15.88;;;6.80;99.90;;;;;;10514714;28;20474;-65
2022/01/16 02:09:10;;;;;;;40.67;14.85;;;6.80;99.90;;;;;;10526396;28;20016;-66
2022/01/16 02:14:35;;;;;;;37.70;14.05;;;6.80;99.90;;;;;;10528355;28;20098;-67
2022/01/16 02:35:47;;;;;;;43.30;15.40;;;6.80;99.90;;;;;;10528418;28;20075;-66
2022/01/16 02:40:56;;;;;;;41.97;14.60;;;6.80;99.90;;;;;;10527347;28;20074;-67
2022/01/16 02:51:19;;;;;;;42.63;13.32;;;6.70;99.70;;;;;;10527125;28;20591;-68
2022/01/16 02:56:20;;;;;;;37.90;13.68;;;6.70;99.90;;;;;;10523906;28;20051;-68
2022/01/16 03:01:21;;;;;;;39.42;14.77;;;6.70;99.90;;;;;;10530261;28;20405;-67
2022/01/16 03:06:27;;;;;;;38.30;14.90;;;6.70;99.90;;;;;;10534531;28;20035;-67
2022/01/16 03:11:35;;;;;;;42.03;13.32;;;6.70;99.90;;;;;;10535926;28;20050;-66
2022/01/16 03:16:38;;;;;;;42.65;14.35;;;6.80;99.90;;;;;;10532384;28;20029;-65
2022/01/16 03:27:17;;;;;;;39.33;13.93;;;6.70;99.90;;;;;;10505983;28;20059;-67
2022/01/16 03:32:21;;;;;;;39.20;13.85;;;6.70;99.90;;;;;;10532910;28;20702;-68
2022/01/16 03:37:22;;;;;;;35.42;12.95;;;6.70;99.90;;;;;;10512240;28;20072;-66
2022/01/16 03:42:27;;;;;;;37.00;13.80;;;6.70;99.90;;;;;;10542705;28;20488;-63
2022/01/16 03:47:29;;;;;;;42.75;14.10;;;6.70;99.90;;;;;;10537172;28;20097;-63
2022/01/16 03:52:30;;;;;;;39.03;14.25;;;6.70;99.90;;;;;;10521074;28;20097;-64
2022/01/16 03:57:30;;;;;;;39.45;14.18;;;6.70;99.90;;;;;;10538648;28;20024;-62
2022/01/16 04:02:31;;;;;;;36.97;14.35;;;6.70;99.90;;;;;;10524039;28;20123;-68
2022/01/16 04:07:35;;;;;;;37.40;13.85;;;6.70;99.90;;;;;;10530051;28;20032;-66
2022/01/16 04:12:38;;;;;;;39.53;14.02;;;6.70;99.90;;;;;;10531587;28;20024;-67
2022/01/16 04:17:39;;;;;;;39.17;13.93;;;6.70;99.90;;;;;;10531142;28;20040;-65
2022/01/16 04:22:40;;;;;;;44.65;15.40;;;7.00;99.90;;;;;;10540285;28;20027;-65
2022/01/16 04:27:41;;;;;;;38.75;14.40;;;6.70;99.90;;;;;;10518825;28;20039;-65
2022/01/16 04:32:42;;;;;;;35.97;14.77;;;6.70;99.90;;;;;;10517203;28;20476;-62
2022/01/16 04:37:44;;;;;;;40.95;13.93;;;6.70;99.90;;;;;;10516706;28;20048;-67
2022/01/16 04:48:04;;;;;;;43.35;14.50;;;6.70;99.90;;;;;;10521808;28;20039;-68
2022/01/16 04:53:05;;;;;;;39.08;13.95;;;6.70;99.90;;;;;;10530543;28;20119;-68
2022/01/16 04:58:06;;;;;;;39.17;13.82;;;6.70;99.90;;;;;;10529045;28;20400;-66
2022/01/16 05:03:07;;;;;;;35.38;13.80;;;6.70;99.90;;;;;;10526879;28;20437;-68
2022/01/16 05:08:07;;;;;;;41.60;13.23;;;6.70;99.90;;;;;;10527260;28;20036;-66
2022/01/16 05:18:23;;;;;;;39.53;14.48;;;6.70;99.90;;;;;;10530370;28;20039;-64
2022/01/16 05:23:24;;;;;;;39.60;14.27;;;6.70;99.90;;;;;;10515363;28;20043;-64
2022/01/16 05:28:25;;;;;;;38.92;14.05;;;6.70;99.90;;;;;;10528260;28;20111;-68
2022/01/16 05:33:26;;;;;;;38.72;13.93;;;6.70;99.90;;;;;;10527831;28;20105;-65
2022/01/16 05:38:27;;;;;;;39.65;14.48;;;7.00;99.90;;;;;;10514328;28;20066;-64
2022/01/16 05:43:28;;;;;;;38.05;13.00;;;6.70;99.90;;;;;;10535151;28;20311;-65
2022/01/16 05:48:29;;;;;;;42.20;14.57;;;6.70;99.90;;;;;;10527923;28;20047;-63
2022/01/16 05:53:29;;;;;;;40.85;13.73;;;6.70;99.90;;;;;;10527500;28;20040;-61
2022/01/16 05:58:30;;;;;;;39.40;14.40;;;6.70;99.90;;;;;;10524982;28;20037;-65
2022/01/16 06:03:31;;;;;;;36.20;13.20;;;6.70;99.90;;;;;;10526633;28;20071;-66
2022/01/16 06:08:32;;;;;;;43.67;14.93;;;6.70;99.90;;;;;;10525938;28;20024;-66
2022/01/16 06:13:32;;;;;;;41.50;14.85;;;6.70;99.90;;;;;;10527217;28;20106;-66
2022/01/16 06:18:33;;;;;;;40.13;14.35;;;6.70;99.90;;;;;;10528232;28;20493;-68
2022/01/16 06:23:34;;;;;;;36.30;13.07;;;6.70;99.90;;;;;;10534603;28;20045;-65
2022/01/16 06:28:34;;;;;;;39.63;15.40;;;6.70;99.90;;;;;;10526686;28;20020;-68
2022/01/16 06:33:35;;;;;;;38.95;13.68;;;6.70;99.90;;;;;;10527324;28;20051;-63
2022/01/16 06:38:36;;;;;;;37.67;14.27;;;6.70;99.90;;;;;;10513966;28;20031;-62
2022/01/16 06:43:37;;;;;;;43.80;14.85;;;6.70;99.90;;;;;;10535611;28;20032;-62
2022/01/16 06:48:37;;;;;;;39.78;14.90;;;6.70;99.90;;;;;;10526563;28;20035;-62
2022/01/16 06:53:38;;;;;;;42.05;14.43;;;6.80;99.90;;;;;;10526352;28;20046;-68
2022/01/16 06:58:39;;;;;;;39.75;13.68;;;6.70;99.90;;;;;;10529238;28;20024;-69
2022/01/16 07:03:40;;;;;;;38.05;13.52;;;6.80;99.90;;;;;;10505329;28;20028;-66
2022/01/16 07:08:41;;;;;;;43.70;15.43;;;6.80;99.90;;;;;;10524292;28;20458;-63
2022/01/16 07:13:42;;;;;;;37.85;15.10;;;6.80;99.90;;;;;;10525349;28;20052;-63
2022/01/16 07:18:43;;;;;;;42.88;15.43;;;6.80;99.90;;;;;;10495791;28;20024;-61
2022/01/16 07:23:46;;;;;;;42.00;15.25;;;6.80;99.90;;;;;;10512167;28;20432;-64
2022/01/16 07:28:47;;;;;;;42.58;15.60;;;6.80;99.90;;;;;;10525932;28;20030;-60
2022/01/16 07:33:47;;;;;;;42.83;15.25;;;6.80;99.90;;;;;;10514695;28;20055;-67
2022/01/16 07:38:48;;;;;;;43.33;14.70;;;6.80;99.90;;;;;;10508955;28;20363;-63
2022/01/16 07:43:49;;;;;;;38.80;15.00;;;6.80;99.90;;;;;;10537723;28;20028;-67
2022/01/16 07:48:50;;;;;;;35.55;14.63;;;6.80;99.90;;;;;;10523724;28;20075;-68
2022/01/16 07:53:52;;;;;;;36.63;14.20;;;6.80;99.90;;;;;;10530658;28;20420;-66
2022/01/16 07:58:53;;;;;;;38.17;14.80;;;6.80;99.90;;;;;;10526874;28;20024;-67
2022/01/16 08:03:53;;;;;;;38.63;14.60;;;6.80;99.90;;;;;;10513390;28;20093;-65
2022/01/16 08:08:56;;;;;;;36.65;13.50;;;6.90;99.90;;;;;;10531243;28;20021;-68
2022/01/16 08:13:56;;;;;;;39.08;14.57;;;6.80;99.90;;;;;;10531973;28;20135;-67
2022/01/16 08:18:57;;;;;;;38.53;14.38;;;6.80;99.90;;;;;;10524272;28;20077;-66
2022/01/16 08:23:58;;;;;;;43.25;15.50;;;6.80;99.90;;;;;;10522799;28;20116;-65
2022/01/16 08:28:59;;;;;;;42.35;14.93;;;6.80;99.90;;;;;;10510919;28;20028;-66
2022/01/16 08:33:59;;;;;;;37.45;14.20;;;6.90;99.90;;;;;;10515751;28;20057;-65
2022/01/16 08:39:01;;;;;;;44.03;16.02;;;6.80;99.90;;;;;;10529402;28;20050;-65
2022/01/16 08:44:01;;;;;;;36.33;13.23;;;7.10;99.90;;;;;;10528592;28;20035;-66
2022/01/16 08:49:02;;;;;;;39.03;14.68;;;6.90;99.90;;;;;;10530337;28;20035;-68
2022/01/16 08:54:03;;;;;;;33.83;14.18;;;6.90;99.90;;;;;;10529906;28;20028;-67
2022/01/16 08:59:04;;;;;;;39.55;14.45;;;6.90;99.90;;;;;;10520325;28;20023;-63
2022/01/16 09:04:05;;;;;;;37.45;14.15;;;7.00;99.90;;;;;;10529578;28;20031;-67
2022/01/16 09:09:05;;;;;;;34.33;13.70;;;6.90;99.90;;;;;;10517573;28;20406;-67
2022/01/16 09:14:06;;;;;;;33.42;14.45;;;7.00;99.90;;;;;;10526289;28;20040;-66
2022/01/16 09:19:07;;;;;;;39.63;14.15;;;7.00;99.90;;;;;;10513025;28;20024;-65
2022/01/16 09:24:08;;;;;;;35.45;14.30;;;7.00;99.90;;;;;;10518315;28;20068;-67
2022/01/16 09:29:09;;;;;;;38.47;14.30;;;7.10;99.90;;;;;;10528709;28;20064;-67
2022/01/16 09:34:10;;;;;;;32.50;13.55;;;7.00;99.90;;;;;;10509195;28;20052;-64
2022/01/16 09:39:11;;;;;;;35.72;13.70;;;7.00;99.90;;;;;;10528526;28;20020;-64
2022/01/16 09:44:13;;;;;;;28.25;12.48;;;7.00;99.90;;;;;;10517213;28;20762;-64
2022/01/16 09:49:14;;;;;;;31.25;13.65;;;7.10;99.90;;;;;;10518061;28;20100;-64
2022/01/16 09:54:15;;;;;;;32.70;12.95;;;7.10;99.90;;;;;;10513798;28;20032;-66
2022/01/16 09:59:16;;;;;;;37.45;13.48;;;7.10;99.90;;;;;;10524615;28;20016;-63
2022/01/16 10:04:46;;;;;;;32.17;13.43;;;7.10;99.90;;;;;;10496465;28;20034;-63
2022/01/16 10:10:10;;;;;;;31.70;13.57;;;7.10;99.90;;;;;;10500006;28;20047;-61
2022/01/16 10:15:20;;;;;;;28.38;12.43;;;7.10;99.90;;;;;;10510220;28;20166;-64
2022/01/16 10:20:20;;;;;;;;;;;7.10;99.90;;;;;;10536280;28;20392;-62
2022/01/16 10:25:47;;;;;;;29.52;13.10;;;7.10;99.90;;;;;;10527440;28;19938;-63
2022/01/16 10:30:51;;;;;;;27.73;11.52;;;7.20;99.90;;;;;;10525725;28;20032;-63
2022/01/16 10:35:54;;;;;;;30.85;11.75;;;7.20;99.90;;;;;;10508390;28;20568;-64
2022/01/16 10:40:59;;;;;;;28.10;11.43;;;7.20;99.90;;;;;;10516857;28;20165;-62
2022/01/16 10:46:00;;;;;;;28.08;11.50;;;7.20;99.90;;;;;;10524647;28;20024;-68
2022/01/16 10:51:01;;;;;;;23.65;10.15;;;7.20;99.90;;;;;;10513556;28;20147;-65
2022/01/16 10:56:05;;;;;;;24.55;10.05;;;7.20;99.90;;;;;;10526843;28;20184;-63
2022/01/16 11:01:11;;;;;;;23.77;10.15;;;7.20;99.90;;;;;;10515396;28;20036;-63
2022/01/16 11:06:13;;;;;;;25.42;10.98;;;7.30;99.90;;;;;;10525177;28;20024;-62
2022/01/16 11:11:14;;;;;;;22.13;9.85;;;7.30;99.90;;;;;;10526616;28;20464;-66
2022/01/16 11:16:15;;;;;;;21.73;8.68;;;7.30;99.90;;;;;;10528477;28;20074;-64
2022/01/16 11:21:31;;;;;;;23.83;9.02;;;7.30;99.90;;;;;;10522586;28;20024;-61
2022/01/16 11:26:32;;;;;;;22.13;9.43;;;7.30;99.90;;;;;;10521168;28;20028;-64
2022/01/16 11:31:33;;;;;;;19.55;8.63;;;7.30;99.90;;;;;;10514736;28;20507;-64
2022/01/16 11:36:33;;;;;;;22.60;8.20;;;7.30;99.90;;;;;;10499111;28;21146;-65
2022/01/16 11:41:40;;;;;;;19.10;8.02;;;7.40;99.90;;;;;;10505138;28;20016;-65
2022/01/16 11:46:48;;;;;;;18.70;8.50;;;7.40;99.90;;;;;;10502932;28;20021;-64
2022/01/16 11:51:59;;;;;;;18.30;8.60;;;7.40;99.90;;;;;;10501245;28;20043;-64
2022/01/16 11:57:23;;;;;;;17.80;7.90;;;7.40;99.90;;;;;;10524181;28;20063;-63
2022/01/16 12:02:25;;;;;;;13.77;6.70;;;7.40;99.90;;;;;;10507388;28;20041;-65
2022/01/16 12:07:35;;;;;;;15.45;7.72;;;7.40;99.90;;;;;;10523768;28;20020;-64
2022/01/16 12:12:36;;;;;;;17.90;7.50;;;7.50;99.90;;;;;;10532493;28;20040;-65
2022/01/16 12:17:44;;;;;;;17.63;7.13;;;7.50;99.90;;;;;;10502751;28;20103;-63
2022/01/16 12:22:49;;;;;;;13.68;6.57;;;7.60;99.90;;;;;;10502156;28;20035;-65
2022/01/16 12:28:04;;;;;;;13.77;6.15;;;7.60;99.90;;;;;;10517330;28;20028;-65
2022/01/16 12:33:16;;;;;;;16.23;6.93;;;7.60;99.90;;;;;;10530416;28;20106;-66
2022/01/16 12:38:34;;;;;;;13.30;6.28;;;7.60;99.90;;;;;;10516122;28;20558;-66
2022/01/16 12:43:41;;;;;;;12.93;5.88;;;7.60;99.90;;;;;;10530547;28;20039;-66
2022/01/16 12:48:44;;;;;;;13.25;6.38;;;7.60;99.90;;;;;;10528824;28;20024;-65
2022/01/16 12:53:46;;;;;;;11.48;6.45;;;7.70;99.90;;;;;;10525405;28;20036;-64
2022/01/16 12:58:49;;;;;;;12.27;5.47;;;7.70;99.90;;;;;;10527083;28;20347;-64
2022/01/16 13:03:49;;;;;;;12.27;5.40;;;7.70;99.90;;;;;;10515750;28;20043;-65
2022/01/16 13:08:56;;;;;;;16.75;6.28;;;7.80;99.90;;;;;;10520216;28;20032;-62
2022/01/16 13:13:58;;;;;;;14.15;5.22;;;7.80;99.90;;;;;;10519520;28;20071;-69
2022/01/16 13:19:17;;;;;;;9.07;4.72;;;7.80;99.90;;;;;;10521890;28;20039;-66
2022/01/16 13:24:34;;;;;;;10.43;4.53;;;7.90;99.90;;;;;;10514936;28;20059;-66
2022/01/16 13:29:37;;;;;;;10.70;4.97;;;7.90;99.90;;;;;;10527156;28;20036;-66
2022/01/16 13:34:47;;;;;;;13.18;5.22;;;7.80;99.90;;;;;;10526992;28;20044;-66
2022/01/16 13:39:51;;;;;;;13.70;5.55;;;7.80;99.90;;;;;;10527648;28;20024;-66
2022/01/16 13:44:52;;;;;;;14.68;6.47;;;7.80;99.90;;;;;;10533731;28;20027;-65
2022/01/16 13:49:53;;;;;;;15.13;7.05;;;7.80;99.90;;;;;;10517990;28;20020;-64
2022/01/16 13:55:06;;;;;;;16.55;6.63;;;7.70;99.90;;;;;;10520113;28;20023;-66
2022/01/16 14:00:09;;;;;;;13.90;6.30;;;7.80;99.90;;;;;;10514196;28;20120;-67
2022/01/16 14:05:21;;;;;;;13.82;6.07;;;7.90;99.90;;;;;;10515666;28;20134;-66
2022/01/16 14:10:36;;;;;;;15.13;6.53;;;7.90;99.90;;;;;;10510799;28;20024;-64
2022/01/16 14:15:40;;;;;;;15.45;7.03;;;7.90;99.90;;;;;;10518757;28;20177;-64
2022/01/16 14:20:50;;;;;;;17.30;7.88;;;7.80;99.90;;;;;;10504467;28;20377;-65
2022/01/16 14:25:51;;;;;;;16.25;6.97;;;7.90;99.90;;;;;;10510147;28;20029;-64
2022/01/16 14:30:51;;;;;;;16.80;7.55;;;7.90;99.90;;;;;;10510644;28;20483;-66
2022/01/16 14:35:52;;;;;;;18.98;7.75;;;7.90;99.90;;;;;;10504948;28;20054;-67
2022/01/16 14:40:53;;;;;;;19.48;7.57;;;7.90;99.90;;;;;;10516226;28;20359;-67
2022/01/16 14:45:55;;;;;;;17.65;7.07;;;7.90;99.90;;;;;;10532760;28;20028;-67
2022/01/16 14:50:56;;;;;;;16.58;7.03;;;8.00;99.90;;;;;;10528414;28;20324;-66
2022/01/16 14:55:56;;;;;;;18.58;7.78;;;7.90;99.90;;;;;;10534973;28;20494;-67
2022/01/16 15:00:57;;;;;;;20.90;7.93;;;8.10;99.90;;;;;;10534246;28;20028;-66
2022/01/16 15:05:58;;;;;;;17.08;7.20;;;8.80;99.90;;;;;;10518660;28;20413;-66
2022/01/16 15:10:59;;;;;;;17.52;8.40;;;7.90;99.90;;;;;;10502087;28;20111;-68
2022/01/16 15:15:59;;;;;;;21.25;8.23;;;7.90;99.90;;;;;;10491377;28;20044;-68
2022/01/16 15:21:02;;;;;;;17.00;8.27;;;7.90;99.90;;;;;;10497660;28;20035;-67
2022/01/16 15:26:04;;;;;;;18.83;7.72;;;7.90;99.90;;;;;;10497978;28;20032;-67
2022/01/16 15:31:05;;;;;;;17.17;7.88;;;7.90;99.90;;;;;;10509701;28;20028;-67
2022/01/16 15:36:06;;;;;;;22.95;7.82;;;7.90;99.90;;;;;;10509533;28;20060;-68
2022/01/16 15:41:07;;;;;;;17.58;6.75;;;7.90;99.90;;;;;;10524203;28;20028;-67
2022/01/16 15:46:08;;;;;;;15.82;7.72;;;7.90;99.90;;;;;;10536447;28;20420;-67
2022/01/16 15:51:09;;;;;;;20.08;8.18;;;7.90;99.90;;;;;;10524446;28;20032;-67
2022/01/16 15:56:10;;;;;;;21.25;7.22;;;7.90;99.90;;;;;;10531840;28;20040;-67
2022/01/16 16:01:10;;;;;;;22.13;8.82;;;7.90;99.90;;;;;;10526687;28;20021;-67
2022/01/16 16:06:11;;;;;;;18.75;7.50;;;7.90;99.90;;;;;;10515374;28;20513;-67
2022/01/16 16:11:11;;;;;;;20.95;7.90;;;7.90;99.90;;;;;;10522558;28;20020;-67
2022/01/16 16:16:12;;;;;;;22.08;8.18;;;7.90;99.90;;;;;;10528667;28;20040;-67
2022/01/16 16:21:13;;;;;;;21.20;7.95;;;7.90;99.90;;;;;;10517584;28;20033;-67
2022/01/16 16:26:14;;;;;;;19.08;7.72;;;8.00;99.90;;;;;;10528025;28;20024;-67
2022/01/16 16:31:15;;;;;;;19.08;7.45;;;8.10;99.90;;;;;;10519708;28;20098;-68
2022/01/16 16:36:16;;;;;;;18.95;7.90;;;7.90;99.90;;;;;;10521322;28;20180;-64
2022/01/16 16:41:17;;;;;;;18.17;6.97;;;7.90;99.90;;;;;;10515143;28;20024;-66
2022/01/16 16:46:17;;;;;;;19.13;7.43;;;8.00;99.90;;;;;;10497132;28;20040;-67
2022/01/16 16:51:18;;;;;;;16.48;7.95;;;8.00;99.90;;;;;;10522217;28;20025;-65
2022/01/16 16:56:18;;;;;;;16.65;7.43;;;8.00;99.90;;;;;;10536595;28;20036;-65
2022/01/16 17:01:19;;;;;;;14.73;7.55;;;8.00;99.90;;;;;;10523506;28;20032;-64
2022/01/16 17:06:21;;;;;;;18.35;7.43;;;8.00;99.90;;;;;;10513215;28;20028;-66
2022/01/16 17:11:22;;;;;;;16.13;8.02;;;7.90;99.90;;;;;;10519351;28;20031;-66
2022/01/16 17:16:23;;;;;;;18.80;7.47;;;8.00;99.90;;;;;;10484248;28;20036;-63
2022/01/16 17:21:23;;;;;;;15.82;7.78;;;8.00;99.90;;;;;;10536118;28;20020;-66
2022/01/16 17:26:24;;;;;;;18.35;7.50;;;8.00;99.90;;;;;;10527474;28;20418;-64
2022/01/16 17:31:24;;;;;;;13.82;7.07;;;8.00;99.90;;;;;;10519220;28;20020;-65
2022/01/16 17:36:25;;;;;;;18.63;6.93;;;8.00;99.90;;;;;;10520454;28;20049;-66
2022/01/16 17:41:26;;;;;;;15.25;6.80;;;8.00;99.90;;;;;;10527940;28;20023;-66
2022/01/16 17:46:26;;;;;;;18.25;6.63;;;8.00;99.90;;;;;;10513726;28;20474;-66
2022/01/16 17:51:27;;;;;;;17.42;7.22;;;8.00;99.90;;;;;;10491804;28;20020;-66
2022/01/16 17:56:28;;;;;;;14.70;6.72;;;8.00;99.90;;;;;;10532332;28;20031;-65
2022/01/16 18:01:29;;;;;;;14.65;6.93;;;8.00;99.90;;;;;;10533699;28;20023;-66
2022/01/16 18:06:31;;;;;;;13.50;6.28;;;8.00;99.90;;;;;;10526611;28;20046;-66
2022/01/16 18:11:32;;;;;;;12.75;6.70;;;8.00;99.90;;;;;;10523366;28;20054;-63
2022/01/16 18:16:33;;;;;;;18.48;6.07;;;8.10;99.90;;;;;;10512643;28;20027;-65
2022/01/16 18:21:34;;;;;;;13.75;6.65;;;8.10;99.90;;;;;;10536759;28;20020;-66
2022/01/16 18:26:34;;;;;;;10.60;6.00;;;8.10;99.90;;;;;;10514986;28;20474;-65
2022/01/16 18:31:36;;;;;;;19.65;6.65;;;8.20;99.90;;;;;;10527632;28;20535;-65
2022/01/16 18:36:37;;;;;;;12.20;6.20;;;8.30;99.90;;;;;;10522673;28;20343;-66
2022/01/16 18:41:38;;;;;;;17.30;6.53;;;8.30;99.90;;;;;;10522023;28;20083;-65
2022/01/16 18:46:39;;;;;;;11.55;5.90;;;8.20;99.90;;;;;;10505804;28;20062;-66
2022/01/16 18:51:41;;;;;;;12.02;6.15;;;8.20;99.90;;;;;;10509617;28;20004;-65
2022/01/16 18:56:41;;;;;;;13.55;6.07;;;8.20;99.90;;;;;;10514230;28;20039;-68
2022/01/16 19:01:42;;;;;;;16.27;6.22;;;8.20;99.90;;;;;;10507535;28;20311;-68
2022/01/16 19:06:43;;;;;;;11.30;6.05;;;8.20;99.90;;;;;;10515388;28;20045;-67
2022/01/16 19:11:43;;;;;;;13.10;6.13;;;8.20;99.90;;;;;;10513041;28;20158;-67
2022/01/16 19:16:45;;;;;;;13.38;5.65;;;8.20;99.90;;;;;;10510946;28;20035;-69
2022/01/16 19:21:46;;;;;;;12.57;5.78;;;8.20;99.90;;;;;;10488118;28;20021;-67
2022/01/16 19:26:48;;;;;;;11.95;5.40;;;8.20;99.90;;;;;;10503853;28;20061;-68
2022/01/16 19:31:49;;;;;;;12.45;5.65;;;8.20;99.90;;;;;;10510686;28;20024;-69
2022/01/16 19:36:49;;;;;;;11.15;5.45;;;8.20;99.90;;;;;;10511591;28;20131;-68
2022/01/16 19:41:59;;;;;;;12.43;5.32;;;8.20;99.90;;;;;;10535021;28;20651;-68
2022/01/16 19:47:02;;;;;;;10.35;5.07;;;8.20;99.90;;;;;;10503553;28;20020;-67
2022/01/16 19:52:04;;;;;;;11.55;5.72;;;8.20;99.90;;;;;;10504780;28;20048;-66
2022/01/16 19:57:05;;;;;;;11.85;5.47;;;8.20;99.90;;;;;;10504536;28;20566;-67
2022/01/16 20:02:08;;;;;;;10.30;5.03;;;8.20;99.90;;;;;;10509378;28;20478;-68
2022/01/16 20:07:08;;;;;;;11.50;4.85;;;8.20;99.90;;;;;;10509372;28;20036;-70
2022/01/16 20:12:09;;;;;;;11.75;5.13;;;8.10;99.90;;;;;;10520892;28;20390;-67
2022/01/16 20:17:10;;;;;;;8.80;4.32;;;8.20;99.90;;;;;;10504882;28;20051;-68
2022/01/16 20:22:11;;;;;;;10.15;4.70;;;8.30;99.90;;;;;;10505339;28;20031;-70
2022/01/16 20:27:12;;;;;;;11.18;4.55;;;8.10;99.90;;;;;;10503129;28;20079;-66
2022/01/16 20:32:13;;;;;;;10.57;4.43;;;8.10;99.90;;;;;;10495675;28;20027;-67
2022/01/16 20:37:14;;;;;;;12.00;4.18;;;8.20;99.90;;;;;;10503994;28;20041;-67
2022/01/16 20:42:14;;;;;;;7.80;3.92;;;8.10;99.90;;;;;;10510774;28;20019;-66
2022/01/16 20:47:15;;;;;;;8.25;3.83;;;8.10;99.90;;;;;;10488586;28;20036;-66
2022/01/16 20:52:18;;;;;;;11.20;4.20;;;8.10;99.90;;;;;;10515413;28;20116;-66
2022/01/16 20:57:18;;;;;;;7.75;3.63;;;8.10;99.90;;;;;;10510333;28;20035;-68
2022/01/16 21:02:26;;;;;;;8.50;3.90;;;8.10;99.90;;;;;;10502310;28;20038;-66
2022/01/16 21:07:28;;;;;;;9.38;3.58;;;8.10;99.90;;;;;;10508357;28;20094;-66
2022/01/16 21:12:29;;;;;;;10.45;4.07;;;8.20;99.90;;;;;;10518534;28;20753;-66
2022/01/16 21:17:31;;;;;;;6.32;3.45;;;8.10;99.90;;;;;;10504490;28;20059;-67
2022/01/16 21:22:32;;;;;;;10.82;3.75;;;8.10;99.90;;;;;;10484882;28;20025;-67
2022/01/16 21:27:32;;;;;;;8.30;3.10;;;8.10;99.90;;;;;;10500732;28;20474;-66
2022/01/16 21:32:33;;;;;;;5.90;2.55;;;8.10;99.90;;;;;;10492983;28;20422;-67
2022/01/16 21:37:34;;;;;;;7.78;2.75;;;8.10;99.90;;;;;;10512277;28;20036;-66
2022/01/16 21:42:38;;;;;;;8.13;2.58;;;8.10;99.90;;;;;;10516766;28;20036;-66
2022/01/16 21:47:39;;;;;;;5.57;2.58;;;8.10;99.90;;;;;;10515239;28;20406;-67
2022/01/16 21:52:40;;;;;;;11.07;2.85;;;8.10;99.90;;;;;;10503236;28;20016;-66
2022/01/16 21:57:41;;;;;;;4.55;2.28;;;8.10;99.90;;;;;;10506047;28;20075;-66
2022/01/16 22:02:43;;;;;;;4.55;2.17;;;8.20;99.90;;;;;;10502105;28;20051;-66
2022/01/16 22:07:44;;;;;;;4.82;2.63;;;8.10;99.90;;;;;;10508376;28;20042;-66
2022/01/16 22:12:46;;;;;;;3.58;1.90;;;8.10;99.90;;;;;;10513498;28;20025;-66
2022/01/16 22:17:46;;;;;;;7.10;2.58;;;8.10;99.90;;;;;;10508092;28;20036;-66
2022/01/16 22:22:47;;;;;;;9.88;2.28;;;8.10;99.90;;;;;;10503012;28;20359;-70
2022/01/16 22:27:48;;;;;;;4.50;2.05;;;8.10;99.90;;;;;;10507203;28;20024;-66
2022/01/16 22:32:49;;;;;;;4.93;2.13;;;8.10;99.90;;;;;;10513717;28;20059;-64
2022/01/16 22:37:50;;;;;;;4.30;1.80;;;8.10;99.90;;;;;;10490099;28;20036;-67
2022/01/16 22:42:50;;;;;;;4.45;1.75;;;8.20;99.90;;;;;;10508762;28;20020;-66
2022/01/16 22:47:53;;;;;;;2.80;1.90;;;8.20;99.90;;;;;;10506249;28;20039;-66
2022/01/16 22:52:54;;;;;;;6.78;1.80;;;8.20;99.90;;;;;;10515648;28;20033;-65
2022/01/16 22:57:56;;;;;;;5.75;1.58;;;8.20;99.90;;;;;;10527940;28;20389;-66
2022/01/16 23:02:56;;;;;;;5.68;1.67;;;8.10;99.90;;;;;;10524641;28;20105;-66
2022/01/16 23:07:57;;;;;;;1.85;1.05;;;8.20;99.90;;;;;;10514767;28;20073;-66
2022/01/16 23:12:58;;;;;;;6.50;1.52;;;8.20;99.90;;;;;;10505832;28;20029;-66
2022/01/16 23:17:59;;;;;;;2.88;1.30;;;8.10;99.90;;;;;;10530105;28;20493;-66
2022/01/16 23:22:59;;;;;;;3.63;1.20;;;8.20;99.90;;;;;;10527448;28;20020;-66
2022/01/16 23:28:00;;;;;;;4.75;1.38;;;8.10;99.90;;;;;;10528075;28;20025;-66
2022/01/16 23:33:01;;;;;;;2.33;1.10;;;8.10;99.90;;;;;;10523018;28;20595;-66
2022/01/16 23:38:01;;;;;;;4.65;1.30;;;8.10;99.90;;;;;;10520437;28;20036;-66
2022/01/16 23:43:03;;;;;;;4.03;1.27;;;8.10;99.90;;;;;;10539099;28;20502;-66
2022/01/16 23:48:04;;;;;;;4.40;1.60;;;8.10;99.90;;;;;;10527813;28;20466;-66
2022/01/16 23:53:05;;;;;;;3.28;1.20;;;8.10;99.90;;;;;;10523469;28;20077;-66
2022/01/16 23:58:05;;;;;;;4.18;1.10;;;8.20;99.90;;;;;;10532423;28;20139;-67
